createdAt,value
2023-05-15T00:01:37.709Z,100.00
2023-05-15T00:04:11.357Z,100.00
2023-05-15T00:06:57.158Z,100.00
2023-05-15T00:09:29.906Z,100.00
2023-05-15T00:12:04.342Z,100.00
2023-05-15T00:14:35.953Z,100.00
2023-05-15T00:17:05.268Z,100.00
2023-05-15T00:19:43.180Z,100.00
2023-05-15T00:22:16.600Z,100.00
2023-05-15T00:24:52.097Z,100.00
2023-05-15T00:27:28.643Z,100.00
2023-05-15T00:30:03.297Z,100.00
2023-05-15T00:32:45.173Z,100.00
2023-05-15T00:35:18.748Z,100.00
2023-05-15T00:37:54.347Z,100.00
2023-05-15T00:40:24.039Z,100.00
2023-05-15T00:42:55.181Z,100.00
2023-05-15T00:45:33.384Z,100.00
2023-05-15T00:48:04.439Z,100.00
2023-05-15T00:50:37.612Z,100.00
2023-05-15T00:53:07.326Z,100.00
2023-05-15T00:55:36.638Z,100.00
2023-05-15T00:58:12.077Z,100.00
2023-05-15T01:00:46.035Z,100.00
2023-05-15T01:03:17.521Z,100.00
2023-05-15T01:05:49.426Z,100.00
2023-05-15T01:08:28.149Z,100.00
2023-05-15T01:10:59.475Z,100.00
2023-05-15T01:13:31.943Z,100.00
2023-05-15T01:16:11.409Z,100.00
2023-05-15T01:18:44.371Z,100.00
2023-05-15T01:21:33.477Z,100.00
2023-05-15T01:24:18.925Z,100.00
2023-05-15T01:27:15.164Z,100.00
2023-05-15T01:29:48.554Z,100.00
2023-05-15T01:32:25.381Z,100.00
2023-05-15T01:35:05.743Z,100.00
2023-05-15T01:37:38.835Z,100.00
2023-05-15T01:40:09.680Z,100.00
2023-05-15T01:42:45.689Z,100.00
2023-05-15T01:45:21.104Z,100.00
2023-05-15T01:47:51.875Z,100.00
2023-05-15T01:50:23.260Z,100.00
2023-05-15T01:52:59.473Z,100.00
2023-05-15T01:55:28.609Z,100.00
2023-05-15T01:58:03.450Z,100.00
2023-05-15T02:00:43.126Z,100.00
2023-05-15T02:03:16.285Z,100.00
2023-05-15T02:06:01.773Z,100.00
2023-05-15T02:08:33.445Z,100.00
2023-05-15T02:11:12.768Z,100.00
2023-05-15T02:14:00.868Z,100.00
2023-05-15T02:16:42.982Z,100.00
2023-05-15T02:19:16.975Z,100.00
2023-05-15T02:21:52.653Z,100.00
2023-05-15T02:24:25.318Z,100.00
2023-05-15T02:27:01.487Z,100.00
2023-05-15T02:29:39.189Z,100.00
2023-05-15T02:32:17.695Z,100.00
2023-05-15T02:34:59.957Z,100.00
2023-05-15T02:37:38.077Z,100.00
2023-05-15T02:40:10.617Z,100.00
2023-05-15T02:42:40.079Z,100.00
2023-05-15T02:45:17.994Z,100.00
2023-05-15T02:47:53.217Z,100.00
2023-05-15T02:50:23.809Z,100.00
2023-05-15T02:52:55.648Z,100.00
2023-05-15T02:55:27.719Z,100.00
2023-05-15T02:57:59.270Z,100.00
2023-05-15T03:00:36.178Z,100.00
2023-05-15T03:03:07.493Z,100.00
2023-05-15T03:05:44.680Z,100.00
2023-05-15T03:08:13.854Z,100.00
2023-05-15T03:10:49.607Z,100.00
2023-05-15T03:13:28.211Z,100.00
2023-05-15T03:16:00.746Z,100.00
2023-05-15T03:18:32.596Z,100.00
2023-05-15T03:21:08.305Z,100.00
2023-05-15T03:23:38.726Z,100.00
2023-05-15T03:26:08.043Z,100.00
2023-05-15T03:28:42.265Z,100.00
2023-05-15T03:31:17.353Z,100.00
2023-05-15T03:33:50.362Z,100.00
2023-05-15T03:36:19.243Z,100.00
2023-05-15T03:38:50.661Z,100.00
2023-05-15T03:41:22.937Z,100.00
2023-05-15T03:43:58.580Z,100.00
2023-05-15T03:46:29.230Z,100.00
2023-05-15T03:48:59.817Z,100.00
2023-05-15T03:51:36.923Z,100.00
2023-05-15T03:54:06.695Z,100.00
2023-05-15T03:56:37.712Z,100.00
2023-05-15T03:59:08.169Z,100.00
2023-05-15T04:02:02.220Z,100.00
2023-05-15T04:04:34.153Z,100.00
2023-05-15T04:07:09.621Z,100.00
2023-05-15T04:09:44.563Z,100.00
2023-05-15T04:12:18.540Z,100.00
2023-05-15T04:14:47.761Z,100.00
2023-05-15T04:17:19.657Z,100.00
2023-05-15T04:20:01.282Z,100.00
2023-05-15T04:22:37.638Z,100.00
2023-05-15T04:25:11.949Z,100.00
2023-05-15T04:27:46.009Z,100.00
2023-05-15T04:30:18.623Z,100.00
2023-05-15T04:32:52.608Z,100.00
2023-05-15T04:35:22.262Z,100.00
2023-05-15T04:37:52.544Z,100.00
2023-05-15T04:40:29.914Z,100.00
2023-05-15T04:43:00.425Z,100.00
2023-05-15T04:45:43.148Z,100.00
2023-05-15T04:48:19.512Z,100.00
2023-05-15T04:50:48.573Z,100.00
2023-05-15T04:53:23.358Z,100.00
2023-05-15T04:55:59.968Z,100.00
2023-05-15T04:58:36.700Z,100.00
2023-05-15T05:01:10.930Z,100.00
2023-05-15T05:03:43.648Z,100.00
2023-05-15T05:06:18.626Z,100.00
2023-05-15T05:08:51.456Z,100.00
2023-05-15T05:11:22.006Z,100.00
2023-05-15T05:13:58.510Z,100.00
2023-05-15T05:16:28.326Z,100.00
2023-05-15T05:19:07.490Z,100.00
2023-05-15T05:21:40.118Z,100.00
2023-05-15T05:24:26.296Z,100.00
2023-05-15T05:27:00.796Z,100.00
2023-05-15T05:29:33.146Z,100.00
2023-05-15T05:32:06.235Z,100.00
2023-05-15T05:34:40.214Z,100.00
2023-05-15T05:37:13.688Z,100.00
2023-05-15T05:39:50.329Z,100.00
2023-05-15T05:42:20.727Z,100.00
2023-05-15T05:44:56.515Z,100.00
2023-05-15T05:47:26.705Z,100.00
2023-05-15T05:50:01.176Z,100.00
2023-05-15T05:52:36.440Z,100.00
2023-05-15T05:55:10.327Z,100.00
2023-05-15T05:57:44.943Z,100.00
2023-05-15T06:00:17.392Z,100.00
2023-05-15T06:02:57.688Z,100.00
2023-05-15T06:05:38.012Z,100.00
2023-05-15T06:08:11.802Z,100.00
2023-05-15T06:10:42.766Z,100.00
2023-05-15T06:13:23.644Z,100.00
2023-05-15T06:15:55.343Z,100.00
2023-05-15T06:18:27.284Z,100.00
2023-05-15T06:21:00.669Z,100.00
2023-05-15T06:23:35.682Z,100.00
2023-05-15T06:26:08.727Z,100.00
2023-05-15T06:28:46.759Z,100.00
2023-05-15T06:31:18.089Z,100.00
2023-05-15T06:33:50.016Z,100.00
2023-05-15T06:36:23.151Z,100.00
2023-05-15T06:38:54.656Z,100.00
2023-05-15T06:41:27.716Z,100.00
2023-05-15T06:43:59.922Z,100.00
2023-05-15T06:46:32.046Z,100.00
2023-05-15T06:49:06.408Z,100.00
2023-05-15T06:51:52.341Z,100.00
2023-05-15T06:54:22.746Z,100.00
2023-05-15T06:56:54.607Z,100.00
2023-05-15T06:59:32.543Z,100.00
2023-05-15T07:02:03.332Z,100.00
2023-05-15T07:04:35.272Z,100.00
2023-05-15T07:07:10.785Z,100.00
2023-05-15T07:09:42.278Z,100.00
2023-05-15T07:12:11.926Z,100.00
2023-05-15T07:14:49.061Z,100.00
2023-05-15T07:17:28.760Z,100.00
2023-05-15T07:20:00.710Z,100.00
2023-05-15T07:22:32.756Z,100.00
2023-05-15T07:25:03.613Z,100.00
2023-05-15T07:27:35.122Z,100.00
2023-05-15T07:30:06.765Z,100.00
2023-05-15T07:32:55.431Z,100.00
2023-05-15T07:35:28.419Z,100.00
2023-05-15T07:38:00.883Z,100.00
2023-05-15T07:40:33.762Z,100.00
2023-05-15T07:43:07.502Z,100.00
2023-05-15T07:45:38.827Z,100.00
2023-05-15T07:48:23.320Z,100.00
2023-05-15T07:50:55.667Z,100.00
2023-05-15T07:53:34.785Z,100.00
2023-05-15T07:56:13.767Z,100.00
2023-05-15T07:58:45.183Z,100.00
2023-05-15T08:01:17.193Z,100.00
2023-05-15T08:03:48.223Z,100.00
2023-05-15T08:06:26.498Z,100.00
2023-05-15T08:09:01.213Z,100.00
2023-05-15T08:11:33.582Z,100.00
2023-05-15T08:14:13.132Z,100.00
2023-05-15T08:16:45.661Z,100.00
2023-05-15T08:19:21.396Z,100.00
2023-05-15T08:21:51.633Z,100.00
2023-05-15T08:24:28.550Z,100.00
2023-05-15T08:27:01.820Z,100.00
2023-05-15T08:29:34.529Z,100.00
2023-05-15T08:32:06.636Z,100.00
2023-05-15T08:34:37.580Z,100.00
2023-05-15T08:37:11.355Z,100.00
2023-05-15T08:39:44.928Z,100.00
2023-05-15T08:42:25.118Z,100.00
2023-05-15T08:44:57.132Z,100.00
2023-05-15T08:47:29.556Z,100.00
2023-05-15T08:50:03.868Z,100.00
2023-05-15T08:52:37.096Z,100.00
2023-05-15T08:55:16.147Z,100.00
2023-05-15T08:57:48.691Z,100.00
2023-05-15T09:00:22.798Z,100.00
2023-05-15T09:03:03.501Z,100.00
2023-05-15T09:05:39.973Z,100.00
2023-05-15T09:08:09.129Z,100.00
2023-05-15T09:10:52.933Z,100.00
2023-05-15T09:13:28.087Z,100.00
2023-05-15T09:16:02.322Z,100.00
2023-05-15T09:18:31.379Z,100.00
2023-05-15T09:21:26.956Z,100.00
2023-05-15T09:24:19.559Z,100.00
2023-05-15T09:27:02.947Z,100.00
2023-05-15T09:29:34.684Z,100.00
2023-05-15T09:32:08.054Z,100.00
2023-05-15T09:34:40.902Z,100.00
2023-05-15T09:37:12.352Z,100.00
2023-05-15T09:39:43.153Z,100.00
2023-05-15T09:42:14.453Z,100.00
2023-05-15T09:44:44.704Z,100.00
2023-05-15T09:47:17.162Z,100.00
2023-05-15T09:49:49.663Z,100.00
2023-05-15T09:52:20.443Z,100.00
2023-05-15T09:54:59.227Z,100.00
2023-05-15T09:57:35.567Z,100.00
2023-05-15T10:00:17.143Z,100.00
2023-05-15T10:02:52.434Z,100.00
2023-05-15T10:05:35.306Z,100.00
2023-05-15T10:08:11.340Z,100.00
2023-05-15T10:10:46.417Z,100.00
2023-05-15T10:13:19.708Z,100.00
2023-05-15T10:16:01.503Z,100.00
2023-05-15T10:18:39.051Z,100.00
2023-05-15T10:21:09.821Z,100.00
2023-05-15T10:23:40.815Z,100.00
2023-05-15T10:26:17.008Z,100.00
2023-05-15T10:28:50.130Z,100.00
2023-05-15T10:31:21.367Z,100.00
2023-05-15T10:36:56.522Z,100.00
2023-05-15T10:39:27.201Z,100.00
2023-05-15T10:42:00.210Z,100.00
2023-05-15T10:44:38.193Z,100.00
2023-05-15T10:47:09.596Z,100.00
2023-05-15T10:49:52.194Z,100.00
2023-05-15T10:52:29.592Z,100.00
2023-05-15T10:54:58.975Z,100.00
2023-05-15T10:57:36.944Z,100.00
2023-05-15T11:00:19.821Z,100.00
2023-05-15T11:02:56.276Z,100.00
2023-05-15T11:05:33.648Z,100.00
2023-05-15T11:08:31.507Z,100.00
2023-05-15T11:11:09.439Z,100.00
2023-05-15T11:14:09.694Z,100.00
2023-05-15T11:17:01.025Z,100.00
2023-05-15T11:19:43.040Z,100.00
2023-05-15T11:22:21.729Z,100.00
2023-05-15T11:24:52.593Z,100.00
2023-05-15T11:27:27.897Z,100.00
2023-05-15T11:30:14.389Z,100.00
2023-05-15T11:32:52.142Z,100.00
2023-05-15T11:35:32.345Z,100.00
2023-05-15T11:38:17.028Z,100.00
2023-05-15T11:40:48.021Z,100.00
2023-05-15T11:43:22.942Z,100.00
2023-05-15T11:46:01.073Z,100.00
2023-05-15T11:48:38.344Z,100.00
2023-05-15T11:51:11.775Z,100.00
2023-05-15T11:53:42.797Z,100.00
2023-05-15T11:56:17.511Z,100.00
2023-05-15T11:58:53.597Z,100.00
2023-05-15T12:01:40.099Z,100.00
2023-05-15T12:04:16.835Z,100.00
2023-05-15T12:06:50.382Z,100.00
2023-05-15T12:09:27.806Z,100.00
2023-05-15T12:12:09.814Z,100.00
2023-05-15T12:14:43.587Z,100.00
2023-05-15T12:17:14.749Z,100.00
2023-05-15T12:19:51.557Z,100.00
2023-05-15T12:22:24.822Z,100.00
2023-05-15T12:24:57.003Z,100.00
2023-05-15T12:27:27.113Z,100.00
2023-05-15T12:30:02.030Z,100.00
2023-05-15T12:32:41.790Z,100.00
2023-05-15T12:35:22.208Z,100.00
2023-05-15T12:37:56.531Z,100.00
2023-05-15T12:40:30.136Z,100.00
2023-05-15T12:45:50.269Z,100.00
2023-05-15T12:48:24.820Z,100.00
2023-05-15T12:51:14.256Z,97.29
2023-05-15T12:53:50.554Z,95.71
2023-05-15T12:56:26.329Z,96.56
2023-05-15T12:58:57.182Z,94.76
2023-05-15T13:01:42.224Z,93.47
2023-05-15T13:07:20.003Z,90.46
2023-05-15T13:10:22.466Z,86.75
2023-05-15T13:13:02.127Z,83.94
2023-05-15T13:15:48.402Z,84.40
2023-05-15T13:18:22.022Z,82.34
2023-05-15T13:21:00.566Z,74.79
2023-05-15T13:23:40.966Z,76.25
2023-05-15T13:26:11.105Z,75.57
2023-05-15T13:28:40.834Z,74.97
2023-05-15T13:31:20.093Z,72.70
2023-05-15T13:33:55.425Z,71.09
2023-05-15T13:36:28.837Z,74.54
2023-05-15T13:39:12.726Z,72.35
2023-05-15T13:41:46.852Z,74.88
2023-05-15T13:44:19.782Z,75.80
2023-05-15T13:46:53.067Z,73.64
2023-05-15T13:49:26.924Z,72.23
2023-05-15T13:51:58.216Z,76.07
2023-05-15T13:54:36.387Z,76.21
2023-05-15T13:57:10.483Z,75.66
2023-05-15T13:59:44.099Z,74.80
2023-05-15T14:02:19.943Z,71.58
2023-05-15T14:04:53.069Z,69.60
2023-05-15T14:07:27.203Z,68.40
2023-05-15T14:10:03.390Z,70.83
2023-05-15T14:12:36.441Z,70.92
2023-05-15T14:15:07.818Z,67.74
2023-05-15T14:17:39.532Z,63.02
2023-05-15T14:20:18.092Z,64.86
2023-05-15T14:22:52.385Z,65.41
2023-05-15T14:25:27.780Z,62.87
2023-05-15T14:27:58.833Z,59.25
2023-05-15T14:30:28.210Z,61.56
2023-05-15T14:35:44.565Z,55.71
2023-05-15T14:38:17.114Z,59.93
2023-05-15T14:40:55.374Z,61.95
2023-05-15T14:43:27.700Z,62.44
2023-05-15T14:45:59.572Z,59.93
2023-05-15T14:48:40.344Z,54.93
2023-05-15T14:51:12.208Z,50.99
2023-05-15T14:53:52.084Z,51.04
2023-05-15T14:56:27.844Z,59.50
2023-05-15T14:59:01.574Z,64.31
2023-05-15T15:01:36.298Z,65.08
2023-05-15T15:04:17.376Z,62.83
2023-05-15T15:06:47.062Z,64.77
2023-05-15T15:09:29.126Z,69.35
2023-05-15T15:12:10.180Z,87.14
2023-05-15T15:14:41.388Z,91.78
2023-05-15T15:17:26.116Z,94.00
2023-05-15T15:20:00.858Z,93.67
2023-05-15T15:22:31.796Z,93.80
2023-05-15T15:25:06.260Z,93.07
2023-05-15T15:27:38.204Z,91.83
2023-05-15T15:30:09.372Z,92.68
2023-05-15T15:32:43.924Z,90.03
2023-05-15T15:35:15.328Z,90.06
2023-05-15T15:37:47.594Z,91.13
2023-05-15T15:40:18.323Z,91.37
2023-05-15T15:42:51.303Z,89.91
2023-05-15T15:45:24.121Z,88.34
2023-05-15T15:47:57.221Z,86.12
2023-05-15T15:50:37.441Z,86.68
2023-05-15T15:53:19.763Z,89.51
2023-05-15T15:55:51.285Z,88.00
2023-05-15T15:58:35.453Z,89.70
2023-05-15T16:01:05.468Z,95.83
2023-05-15T16:03:51.207Z,98.47
2023-05-15T16:06:22.609Z,99.79
2023-05-15T16:08:58.786Z,98.74
2023-05-15T16:11:31.710Z,100.00
2023-05-15T16:14:06.420Z,100.00
2023-05-15T16:16:39.945Z,100.00
2023-05-15T16:19:15.877Z,100.00
2023-05-15T16:21:46.993Z,100.00
2023-05-15T16:24:26.557Z,100.00
2023-05-15T16:27:07.082Z,100.00
2023-05-15T16:29:39.517Z,100.00
2023-05-15T16:32:11.632Z,100.00
2023-05-15T16:34:41.115Z,100.00
2023-05-15T16:37:12.534Z,100.00
2023-05-15T16:39:41.714Z,100.00
2023-05-15T16:42:15.982Z,100.00
2023-05-15T16:44:57.612Z,100.00
2023-05-15T16:47:31.601Z,100.00
2023-05-15T16:50:05.962Z,98.70
2023-05-15T16:52:42.841Z,100.00
2023-05-15T16:55:22.871Z,100.00
2023-05-15T16:57:56.458Z,100.00
2023-05-15T17:00:32.456Z,100.00
2023-05-15T17:03:11.298Z,100.00
2023-05-15T17:05:46.518Z,100.00
2023-05-15T17:08:20.532Z,100.00
2023-05-15T17:11:02.224Z,100.00
2023-05-15T17:13:39.208Z,100.00
2023-05-15T17:16:18.157Z,100.00
2023-05-15T17:18:52.374Z,100.00
2023-05-15T17:21:34.824Z,100.00
2023-05-15T17:24:13.651Z,100.00
2023-05-15T17:26:54.863Z,100.00
2023-05-15T17:29:30.634Z,100.00
2023-05-15T17:32:15.492Z,100.00
2023-05-15T17:34:51.967Z,100.00
2023-05-15T17:37:27.873Z,100.00
2023-05-15T17:40:10.089Z,100.00
2023-05-15T17:42:45.902Z,100.00
2023-05-15T17:45:16.612Z,100.00
2023-05-15T17:47:57.282Z,100.00
2023-05-15T17:50:30.909Z,100.00
2023-05-15T17:53:04.376Z,100.00
2023-05-15T17:55:39.544Z,100.00
2023-05-15T17:58:16.902Z,100.00
2023-05-15T18:00:58.074Z,100.00
2023-05-15T18:03:35.256Z,100.00
2023-05-15T18:06:08.101Z,100.00
2023-05-15T18:08:47.288Z,100.00
2023-05-15T18:11:23.058Z,100.00
2023-05-15T18:13:56.275Z,100.00
2023-05-15T18:16:31.098Z,100.00
2023-05-15T18:19:08.142Z,100.00
2023-05-15T18:21:42.379Z,100.00
2023-05-15T18:24:16.425Z,100.00
2023-05-15T18:26:49.695Z,100.00
2023-05-15T18:29:26.513Z,100.00
2023-05-15T18:32:03.193Z,100.00
2023-05-15T18:34:45.558Z,100.00
2023-05-15T18:37:17.429Z,100.00
2023-05-15T18:40:01.826Z,100.00
2023-05-15T18:42:38.351Z,100.00
2023-05-15T18:45:22.250Z,100.00
2023-05-15T18:48:01.830Z,100.00
2023-05-15T18:50:40.224Z,100.00
2023-05-15T18:53:18.706Z,100.00
2023-05-15T18:56:00.580Z,100.00
2023-05-15T18:58:35.041Z,100.00
2023-05-15T19:01:09.827Z,100.00
2023-05-15T19:03:47.997Z,100.00
2023-05-15T19:06:20.691Z,100.00
2023-05-15T19:08:53.114Z,100.00
2023-05-15T19:11:23.179Z,100.00
2023-05-15T19:14:01.876Z,100.00
2023-05-15T19:16:38.339Z,100.00
2023-05-15T19:19:08.024Z,100.00
2023-05-15T19:21:40.040Z,100.00
2023-05-15T19:24:10.639Z,100.00
2023-05-15T19:26:40.645Z,100.00
2023-05-15T19:29:11.201Z,100.00
2023-05-15T19:31:41.620Z,100.00
2023-05-15T19:34:13.988Z,100.00
2023-05-15T19:36:50.880Z,100.00
2023-05-15T19:39:20.659Z,100.00
2023-05-15T19:41:57.939Z,100.00
2023-05-15T19:44:36.879Z,100.00
2023-05-15T19:47:13.081Z,100.00
2023-05-15T19:49:47.631Z,100.00
2023-05-15T19:52:18.217Z,100.00
2023-05-15T19:54:50.975Z,100.00
2023-05-15T19:57:22.649Z,100.00
2023-05-15T19:59:55.231Z,100.00
2023-05-15T20:02:30.672Z,100.00
2023-05-15T20:04:59.930Z,100.00
2023-05-15T20:07:49.734Z,100.00
2023-05-15T20:10:22.402Z,100.00
2023-05-15T20:12:55.875Z,100.00
2023-05-15T20:15:26.306Z,100.00
2023-05-15T20:17:56.075Z,100.00
2023-05-15T20:20:27.755Z,100.00
2023-05-15T20:23:02.384Z,100.00
2023-05-15T20:25:32.789Z,100.00
2023-05-15T20:28:07.038Z,100.00
2023-05-15T20:30:42.429Z,100.00
2023-05-15T20:33:16.600Z,100.00
2023-05-15T20:35:51.786Z,100.00
2023-05-15T20:38:27.125Z,100.00
2023-05-15T20:40:57.678Z,100.00
2023-05-15T20:43:32.005Z,100.00
2023-05-15T20:46:04.608Z,100.00
2023-05-15T20:48:34.551Z,100.00
2023-05-15T20:51:12.656Z,100.00
2023-05-15T20:53:47.302Z,100.00
2023-05-15T20:56:26.513Z,100.00
2023-05-15T20:59:01.074Z,100.00
2023-05-15T21:01:30.234Z,100.00
2023-05-15T21:04:01.596Z,100.00
2023-05-15T21:06:36.650Z,100.00
2023-05-15T21:09:13.865Z,100.00
2023-05-15T21:11:49.129Z,100.00
2023-05-15T21:14:20.934Z,100.00
2023-05-15T21:16:50.198Z,100.00
2023-05-15T21:19:25.225Z,100.00
2023-05-15T21:21:54.462Z,100.00
2023-05-15T21:24:27.896Z,100.00
2023-05-15T21:27:04.471Z,100.00
2023-05-15T21:29:35.244Z,100.00
2023-05-15T21:32:05.320Z,100.00
2023-05-15T21:34:35.841Z,100.00
2023-05-15T21:37:10.091Z,100.00
2023-05-15T21:39:43.293Z,100.00
2023-05-15T21:42:21.724Z,100.00
2023-05-15T21:44:51.808Z,100.00
2023-05-15T21:47:26.961Z,100.00
2023-05-15T21:49:57.870Z,100.00
2023-05-15T21:52:29.861Z,100.00
2023-05-15T21:55:06.328Z,100.00
2023-05-15T21:57:38.702Z,100.00
2023-05-15T22:00:12.508Z,100.00
2023-05-15T22:02:52.081Z,100.00
2023-05-15T22:05:26.260Z,100.00
2023-05-15T22:07:56.622Z,100.00
2023-05-15T22:10:32.961Z,100.00
2023-05-15T22:13:05.064Z,100.00
2023-05-15T22:15:34.695Z,100.00
2023-05-15T22:18:06.412Z,100.00
2023-05-15T22:20:35.474Z,100.00
2023-05-15T22:23:07.871Z,100.00
2023-05-15T22:25:50.682Z,100.00
2023-05-15T22:28:23.909Z,100.00
2023-05-15T22:30:57.671Z,100.00
2023-05-15T22:33:29.021Z,100.00
2023-05-15T22:35:58.404Z,100.00
2023-05-15T22:38:31.659Z,100.00
2023-05-15T22:41:04.852Z,100.00
2023-05-15T22:43:37.092Z,100.00
2023-05-15T22:46:09.163Z,100.00
2023-05-15T22:48:45.332Z,100.00
2023-05-15T22:51:17.870Z,100.00
2023-05-15T22:53:48.071Z,100.00
2023-05-15T22:56:18.704Z,100.00
2023-05-15T22:58:50.366Z,100.00
2023-05-15T23:01:19.668Z,100.00
2023-05-15T23:03:53.146Z,100.00
2023-05-15T23:06:25.303Z,100.00
2023-05-15T23:09:00.673Z,100.00
2023-05-15T23:11:34.728Z,100.00
2023-05-15T23:14:10.740Z,100.00
2023-05-15T23:16:40.863Z,100.00
2023-05-15T23:19:23.041Z,100.00
2023-05-15T23:22:01.676Z,100.00
2023-05-15T23:24:31.015Z,100.00
2023-05-15T23:27:02.576Z,100.00
2023-05-15T23:29:35.248Z,100.00
2023-05-15T23:32:07.480Z,100.00
2023-05-15T23:34:40.990Z,100.00
2023-05-15T23:37:12.432Z,100.00
2023-05-15T23:39:44.630Z,100.00
2023-05-15T23:42:22.206Z,100.00
2023-05-15T23:44:59.845Z,100.00
2023-05-15T23:47:35.138Z,100.00
2023-05-15T23:50:04.724Z,100.00
2023-05-15T23:52:36.272Z,100.00
2023-05-15T23:55:06.118Z,100.00
2023-05-15T23:57:45.284Z,100.00
